sensor_id;sensor_type;location;lat;lon;timestamp;temperature;humidity
14357;DHT22;7262;48.764;9.166;2022-11-20T00:01:28;6.30;99.90
14357;DHT22;7262;48.764;9.166;2022-11-20T00:03:55;6.20;99.90
14357;DHT22;7262;48.764;9.166;2022-11-20T00:06:23;6.20;99.90
14357;DHT22;7262;48.764;9.166;2022-11-20T00:08:53;6.20;99.90
14357;DHT22;7262;48.764;9.166;2022-11-20T00:11:21;6.20;99.90
14357;DHT22;7262;48.764;9.166;2022-11-20T00:13:48;6.20;99.90
14357;DHT22;7262;48.764;9.166;2022-11-20T00:16:16;6.20;99.90
14357;DHT22;7262;48.764;9.166;2022-11-20T00:18:43;6.20;99.90
14357;DHT22;7262;48.764;9.166;2022-11-20T00:21:10;6.20;99.90
14357;DHT22;7262;48.764;9.166;2022-11-20T00:23:37;6.20;99.90
14357;DHT22;7262;48.764;9.166;2022-11-20T00:26:06;6.20;99.90
14357;DHT22;7262;48.764;9.166;2022-11-20T00:28:33;6.20;99.90
14357;DHT22;7262;48.764;9.166;2022-11-20T00:31:00;6.20;99.90
14357;DHT22;7262;48.764;9.166;2022-11-20T00:33:27;6.20;99.90
14357;DHT22;7262;48.764;9.166;2022-11-20T00:35:56;6.10;99.90
14357;DHT22;7262;48.764;9.166;2022-11-20T00:38:25;6.10;99.90
14357;DHT22;7262;48.764;9.166;2022-11-20T00:40:54;6.10;99.90
14357;DHT22;7262;48.764;9.166;2022-11-20T00:43:22;6.20;99.90
14357;DHT22;7262;48.764;9.166;2022-11-20T00:45:48;6.20;99.90
14357;DHT22;7262;48.764;9.166;2022-11-20T00:48:15;6.20;99.90
14357;DHT22;7262;48.764;9.166;2022-11-20T00:50:42;6.20;99.90
14357;DHT22;7262;48.764;9.166;2022-11-20T00:53:09;6.30;99.90
14357;DHT22;7262;48.764;9.166;2022-11-20T00:55:35;6.30;99.90
14357;DHT22;7262;48.764;9.166;2022-11-20T00:58:02;6.40;99.90
14357;DHT22;7262;48.764;9.166;2022-11-20T01:00:30;6.40;99.90
14357;DHT22;7262;48.764;9.166;2022-11-20T01:02:57;6.40;99.90
14357;DHT22;7262;48.764;9.166;2022-11-20T01:05:26;6.40;99.90
14357;DHT22;7262;48.764;9.166;2022-11-20T01:07:52;6.30;99.90
14357;DHT22;7262;48.764;9.166;2022-11-20T01:10:19;6.40;99.90
14357;DHT22;7262;48.764;9.166;2022-11-20T01:12:46;6.40;99.90
14357;DHT22;7262;48.764;9.166;2022-11-20T01:15:35;6.30;99.90
14357;DHT22;7262;48.764;9.166;2022-11-20T01:18:01;6.30;99.90
14357;DHT22;7262;48.764;9.166;2022-11-20T01:20:28;6.30;99.90
14357;DHT22;7262;48.764;9.166;2022-11-20T01:22:55;6.30;99.90
14357;DHT22;7262;48.764;9.166;2022-11-20T01:25:22;6.30;99.90
14357;DHT22;7262;48.764;9.166;2022-11-20T01:27:49;6.30;99.90
14357;DHT22;7262;48.764;9.166;2022-11-20T01:30:15;6.30;99.90
14357;DHT22;7262;48.764;9.166;2022-11-20T01:32:43;6.30;99.90
14357;DHT22;7262;48.764;9.166;2022-11-20T01:35:10;6.30;99.90
14357;DHT22;7262;48.764;9.166;2022-11-20T01:37:37;6.30;99.90
14357;DHT22;7262;48.764;9.166;2022-11-20T01:40:04;6.20;99.90
14357;DHT22;7262;48.764;9.166;2022-11-20T01:42:31;6.20;99.90
14357;DHT22;7262;48.764;9.166;2022-11-20T01:48:01;6.10;99.90
14357;DHT22;7262;48.764;9.166;2022-11-20T01:50:28;6.00;99.90
14357;DHT22;7262;48.764;9.166;2022-11-20T01:52:56;6.00;99.90
14357;DHT22;7262;48.764;9.166;2022-11-20T01:55:24;5.90;99.90
14357;DHT22;7262;48.764;9.166;2022-11-20T01:57:52;5.90;99.90
14357;DHT22;7262;48.764;9.166;2022-11-20T02:55:25;5.80;99.90
14357;DHT22;7262;48.764;9.166;2022-11-20T02:58:02;5.80;99.90
14357;DHT22;7262;48.764;9.166;2022-11-20T03:43:10;5.90;99.90
14357;DHT22;7262;48.764;9.166;2022-11-20T03:45:38;5.80;99.90
14357;DHT22;7262;48.764;9.166;2022-11-20T04:20:44;5.40;99.90
14357;DHT22;7262;48.764;9.166;2022-11-20T04:41:20;5.50;99.90
14357;DHT22;7262;48.764;9.166;2022-11-20T04:43:47;5.50;99.90
14357;DHT22;7262;48.764;9.166;2022-11-20T05:04:25;5.50;99.90
14357;DHT22;7262;48.764;9.166;2022-11-20T05:17:15;5.70;99.90
14357;DHT22;7262;48.764;9.166;2022-11-20T05:39:12;5.90;99.90
14357;DHT22;7262;48.764;9.166;2022-11-20T05:54:37;6.00;99.90
14357;DHT22;7262;48.764;9.166;2022-11-20T06:12:37;6.10;99.90
14357;DHT22;7262;48.764;9.166;2022-11-20T06:15:05;6.10;99.90
14357;DHT22;7262;48.764;9.166;2022-11-20T06:17:32;6.10;99.90
14357;DHT22;7262;48.764;9.166;2022-11-20T14:11:30;9.30;99.90
14357;DHT22;7262;48.764;9.166;2022-11-20T14:14:13;9.20;99.90
14357;DHT22;7262;48.764;9.166;2022-11-20T14:16:40;9.20;99.90
14357;DHT22;7262;48.764;9.166;2022-11-20T14:22:17;8.90;99.90
14357;DHT22;7262;48.764;9.166;2022-11-20T14:24:44;8.90;99.90
14357;DHT22;7262;48.764;9.166;2022-11-20T14:27:14;8.80;99.90
14357;DHT22;7262;48.764;9.166;2022-11-20T14:29:41;8.70;99.90
14357;DHT22;7262;48.764;9.166;2022-11-20T14:32:08;8.70;99.90
14357;DHT22;7262;48.764;9.166;2022-11-20T14:34:37;8.70;99.90
14357;DHT22;7262;48.764;9.166;2022-11-20T14:37:06;8.60;99.90
14357;DHT22;7262;48.764;9.166;2022-11-20T14:39:37;8.60;99.90
14357;DHT22;7262;48.764;9.166;2022-11-20T14:42:10;8.60;99.90
14357;DHT22;7262;48.764;9.166;2022-11-20T14:44:42;8.60;99.90
14357;DHT22;7262;48.764;9.166;2022-11-20T14:47:10;8.60;99.90
14357;DHT22;7262;48.764;9.166;2022-11-20T14:49:38;8.50;99.90
14357;DHT22;7262;48.764;9.166;2022-11-20T14:52:10;8.50;99.90
14357;DHT22;7262;48.764;9.166;2022-11-20T14:54:43;8.50;99.90
14357;DHT22;7262;48.764;9.166;2022-11-20T14:57:18;8.50;99.90
14357;DHT22;7262;48.764;9.166;2022-11-20T14:59:47;8.40;99.90
14357;DHT22;7262;48.764;9.166;2022-11-20T15:02:14;8.40;99.90
14357;DHT22;7262;48.764;9.166;2022-11-20T15:04:44;8.40;99.90
14357;DHT22;7262;48.764;9.166;2022-11-20T15:07:11;8.20;99.90
14357;DHT22;7262;48.764;9.166;2022-11-20T15:09:37;8.20;99.90
14357;DHT22;7262;48.764;9.166;2022-11-20T15:12:04;8.20;99.90
14357;DHT22;7262;48.764;9.166;2022-11-20T15:14:31;8.10;99.90
14357;DHT22;7262;48.764;9.166;2022-11-20T15:17:00;8.10;99.90
14357;DHT22;7262;48.764;9.166;2022-11-20T15:19:27;8.00;99.90
14357;DHT22;7262;48.764;9.166;2022-11-20T15:21:54;8.00;99.90
14357;DHT22;7262;48.764;9.166;2022-11-20T15:24:20;7.90;99.90
14357;DHT22;7262;48.764;9.166;2022-11-20T15:26:47;8.00;99.90
14357;DHT22;7262;48.764;9.166;2022-11-20T15:29:14;7.80;99.90
14357;DHT22;7262;48.764;9.166;2022-11-20T15:31:44;7.80;99.90
14357;DHT22;7262;48.764;9.166;2022-11-20T15:34:12;7.70;99.90
14357;DHT22;7262;48.764;9.166;2022-11-20T15:36:39;7.70;99.90
14357;DHT22;7262;48.764;9.166;2022-11-20T15:39:06;7.60;99.90
14357;DHT22;7262;48.764;9.166;2022-11-20T15:41:33;7.60;99.90
14357;DHT22;7262;48.764;9.166;2022-11-20T15:44:00;7.50;99.90
14357;DHT22;7262;48.764;9.166;2022-11-20T15:46:28;7.40;99.90
14357;DHT22;7262;48.764;9.166;2022-11-20T15:48:56;7.50;99.90
14357;DHT22;7262;48.764;9.166;2022-11-20T15:51:26;7.40;99.90
14357;DHT22;7262;48.764;9.166;2022-11-20T15:53:54;7.40;99.90
14357;DHT22;7262;48.764;9.166;2022-11-20T15:56:21;7.30;99.90
14357;DHT22;7262;48.764;9.166;2022-11-20T15:58:47;7.40;99.90
14357;DHT22;7262;48.764;9.166;2022-11-20T16:01:16;7.30;99.90
14357;DHT22;7262;48.764;9.166;2022-11-20T16:03:43;7.30;99.90
14357;DHT22;7262;48.764;9.166;2022-11-20T16:06:10;7.30;99.90
14357;DHT22;7262;48.764;9.166;2022-11-20T16:08:38;7.20;99.90
14357;DHT22;7262;48.764;9.166;2022-11-20T16:11:05;7.20;99.90
14357;DHT22;7262;48.764;9.166;2022-11-20T16:13:33;7.20;99.90
14357;DHT22;7262;48.764;9.166;2022-11-20T16:16:28;7.10;99.90
14357;DHT22;7262;48.764;9.166;2022-11-20T16:18:56;7.10;99.90
14357;DHT22;7262;48.764;9.166;2022-11-20T16:21:23;7.10;99.90
14357;DHT22;7262;48.764;9.166;2022-11-20T16:23:54;7.10;99.90
14357;DHT22;7262;48.764;9.166;2022-11-20T16:26:21;7.10;99.90
14357;DHT22;7262;48.764;9.166;2022-11-20T16:28:48;7.20;99.90
14357;DHT22;7262;48.764;9.166;2022-11-20T16:31:15;7.10;99.90
14357;DHT22;7262;48.764;9.166;2022-11-20T16:33:43;7.10;99.90
14357;DHT22;7262;48.764;9.166;2022-11-20T16:36:17;7.10;99.90
14357;DHT22;7262;48.764;9.166;2022-11-20T16:38:44;7.10;99.90
14357;DHT22;7262;48.764;9.166;2022-11-20T16:41:12;7.20;99.90
14357;DHT22;7262;48.764;9.166;2022-11-20T16:43:46;7.20;99.90
14357;DHT22;7262;48.764;9.166;2022-11-20T16:46:13;7.20;99.90
14357;DHT22;7262;48.764;9.166;2022-11-20T16:48:40;7.30;99.90
14357;DHT22;7262;48.764;9.166;2022-11-20T16:51:07;7.20;99.90
14357;DHT22;7262;48.764;9.166;2022-11-20T16:53:34;7.30;99.90
14357;DHT22;7262;48.764;9.166;2022-11-20T16:56:08;7.20;99.90
14357;DHT22;7262;48.764;9.166;2022-11-20T16:58:37;7.30;99.90
14357;DHT22;7262;48.764;9.166;2022-11-20T17:01:04;7.30;99.90
